createdAt,value
2019-06-10T00:00:13.513Z,11.36
2019-06-10T00:05:14.588Z,13.83
2019-06-10T00:10:22.205Z,11.67
2019-06-10T00:15:31.361Z,15.53
2019-06-10T00:20:37.129Z,10.83
2019-06-10T00:25:44.737Z,9.50
2019-06-10T00:30:52.336Z,7.38
2019-06-10T00:36:03.695Z,8.53
2019-06-10T00:41:08.909Z,8.81
2019-06-10T00:46:14.716Z,8.59
2019-06-10T00:51:22.313Z,10.39
2019-06-10T00:56:30.833Z,7.82
2019-06-10T01:01:37.085Z,11.42
2019-06-10T01:06:44.728Z,9.90
2019-06-10T01:11:52.316Z,9.49
2019-06-10T01:17:01.281Z,9.08
2019-06-10T01:22:08.167Z,11.53
2019-06-10T01:27:15.123Z,9.43
2019-06-10T01:32:21.796Z,9.66
2019-06-10T01:37:31.929Z,9.69
2019-06-10T01:42:30.671Z,10.16
2019-06-10T01:47:36.761Z,10.56
2019-06-10T01:52:44.392Z,10.10
2019-06-10T01:57:52.026Z,9.61
2019-06-10T02:03:03.353Z,8.82
2019-06-10T02:08:06.744Z,10.35
2019-06-10T02:13:15.127Z,9.23
2019-06-10T02:18:22.503Z,10.01
2019-06-10T02:23:31.057Z,11.96
2019-06-10T02:28:35.868Z,11.90
2019-06-10T02:33:43.480Z,9.89
2019-06-10T02:38:53.995Z,12.63
2019-06-10T02:43:58.582Z,13.81
2019-06-10T02:49:26.454Z,13.48
2019-06-10T02:54:16.182Z,11.13
2019-06-10T02:59:26.034Z,13.79
2019-06-10T03:04:32.565Z,12.79
2019-06-10T03:09:35.833Z,13.12
2019-06-10T03:14:42.302Z,11.18
2019-06-10T03:19:52.963Z,11.04
2019-06-10T03:24:57.108Z,11.38
2019-06-10T03:30:14.763Z,11.46
2019-06-10T03:35:13.187Z,11.90
2019-06-10T03:40:19.129Z,10.80
2019-06-10T03:45:28.391Z,12.37
2019-06-10T03:50:33.953Z,10.57
2019-06-10T03:55:42.357Z,11.73
2019-06-10T04:00:48.753Z,11.43
2019-06-10T04:05:56.483Z,15.50
2019-06-10T04:11:04.060Z,11.28
2019-06-10T04:16:13.023Z,12.69
2019-06-10T04:21:20.290Z,11.56
2019-06-10T04:26:28.179Z,10.27
2019-06-10T04:31:33.227Z,11.15
2019-06-10T04:36:42.360Z,10.47
2019-06-10T04:41:47.858Z,12.27
2019-06-10T04:46:55.440Z,12.51
2019-06-10T04:52:18.646Z,12.68
2019-06-10T04:57:06.412Z,12.24
2019-06-10T05:02:14.311Z,11.77
2019-06-10T05:07:23.754Z,12.28
2019-06-10T05:12:29.628Z,10.02
2019-06-10T05:17:45.338Z,11.75
2019-06-10T05:22:52.843Z,14.43
2019-06-10T05:27:48.004Z,11.84
2019-06-10T05:32:55.661Z,11.19
2019-06-10T05:38:03.272Z,11.03
2019-06-10T05:43:12.897Z,12.40
2019-06-10T05:48:18.039Z,11.40
2019-06-10T05:53:26.511Z,12.72
2019-06-10T05:58:34.535Z,13.12
2019-06-10T06:03:43.629Z,11.86
2019-06-10T06:08:47.972Z,11.63
2019-06-10T06:13:55.679Z,13.24
2019-06-10T06:19:03.395Z,13.65
2019-06-10T06:24:12.822Z,11.36
2019-06-10T06:29:18.046Z,11.88
2019-06-10T06:34:26.858Z,10.32
2019-06-10T06:39:34.735Z,14.31
2019-06-10T06:44:40.022Z,14.88
2019-06-10T06:49:47.625Z,13.15
2019-06-10T06:54:55.233Z,14.08
2019-06-10T07:00:33.833Z,12.76
2019-06-10T07:05:12.399Z,12.93
2019-06-10T07:10:17.308Z,12.12
2019-06-10T07:15:24.929Z,12.06
2019-06-10T07:20:33.757Z,13.07
2019-06-10T07:25:40.573Z,13.02
2019-06-10T07:30:51.784Z,12.95
2019-06-10T07:35:56.592Z,11.09
2019-06-10T07:41:02.663Z,11.41
2019-06-10T07:46:08.748Z,11.43
2019-06-10T07:51:16.405Z,12.66
2019-06-10T07:56:24.030Z,12.59
2019-06-10T08:01:33.311Z,12.60
2019-06-10T08:06:39.818Z,12.28
2019-06-10T08:11:48.298Z,14.58
2019-06-10T08:16:53.317Z,13.21
2019-06-10T08:22:02.900Z,13.33
2019-06-10T08:27:07.870Z,13.28
2019-06-10T08:32:15.725Z,12.93
2019-06-10T08:37:23.595Z,10.68
2019-06-10T08:42:32.388Z,12.63
2019-06-10T08:47:39.193Z,11.07
2019-06-10T08:53:03.439Z,13.79
2019-06-10T08:57:53.971Z,14.30
2019-06-10T09:02:59.624Z,13.39
2019-06-10T09:08:07.472Z,12.44
2019-06-10T09:13:15.141Z,11.51
2019-06-10T09:18:23.236Z,14.35
2019-06-10T09:23:29.942Z,15.31
2019-06-10T09:28:37.557Z,12.73
2019-06-10T09:33:50.217Z,12.94
2019-06-10T09:38:55.547Z,13.14
2019-06-10T09:43:59.962Z,13.85
2019-06-10T09:49:06.629Z,12.91
2019-06-10T09:54:14.277Z,12.01
2019-06-10T09:59:23.473Z,13.56
2019-06-10T10:04:29.022Z,12.15
2019-06-10T10:09:37.159Z,13.42
2019-06-10T10:14:46.028Z,12.49
2019-06-10T10:19:55.789Z,13.69
2019-06-10T10:24:58.113Z,14.89
2019-06-10T10:30:05.721Z,12.92
2019-06-10T10:35:13.330Z,11.25
2019-06-10T10:40:23.287Z,11.14
2019-06-10T10:45:28.470Z,12.12
2019-06-10T10:50:36.081Z,12.80
2019-06-10T10:55:43.803Z,11.18
2019-06-10T11:00:54.484Z,12.29
2019-06-10T11:06:00.633Z,11.98
2019-06-10T11:11:05.902Z,11.85
2019-06-10T11:16:12.294Z,11.72
2019-06-10T11:21:22.708Z,11.17
2019-06-10T11:26:27.078Z,10.79
2019-06-10T11:31:34.702Z,12.17
2019-06-10T11:36:42.702Z,11.56
2019-06-10T11:41:50.873Z,11.45
2019-06-10T11:46:59.497Z,10.79
2019-06-10T11:52:03.819Z,11.72
2019-06-10T11:57:12.517Z,13.22
2019-06-10T12:02:18.630Z,11.20
2019-06-10T12:07:26.218Z,10.12
2019-06-10T12:12:34.035Z,11.18
2019-06-10T12:17:46.972Z,11.66
2019-06-10T12:22:49.516Z,9.16
2019-06-10T12:27:59.317Z,8.25
2019-06-10T12:33:05.590Z,8.59
2019-06-10T12:38:13.032Z,9.41
2019-06-10T12:43:17.870Z,9.14
2019-06-10T12:48:24.725Z,10.73
2019-06-10T12:53:32.662Z,8.87
2019-06-10T12:58:39.473Z,10.58
2019-06-10T13:03:47.072Z,10.18
2019-06-10T13:08:56.408Z,10.62
2019-06-10T13:14:04.010Z,10.57
2019-06-10T13:19:08.944Z,8.21
2019-06-10T13:24:16.543Z,8.76
2019-06-10T13:29:25.137Z,8.80
2019-06-10T13:34:32.455Z,8.11
2019-06-10T13:39:38.913Z,7.65
2019-06-10T13:44:46.594Z,9.04
2019-06-10T13:49:54.189Z,9.71
2019-06-10T13:55:04.004Z,10.02
2019-06-10T14:00:11.475Z,9.47
2019-06-10T14:10:23.433Z,14.04
2019-06-10T14:15:32.942Z,13.06
2019-06-10T14:20:38.222Z,10.61
2019-06-10T14:25:45.809Z,14.26
2019-06-10T14:30:54.019Z,14.76
2019-06-10T14:36:00.559Z,7.54
2019-06-10T14:41:08.235Z,5.88
2019-06-10T14:46:17.460Z,4.72
2019-06-10T14:51:23.113Z,7.45
2019-06-10T14:56:30.585Z,7.82
2019-06-10T15:01:38.303Z,6.99
2019-06-10T15:06:45.882Z,8.32
2019-06-10T15:11:53.498Z,8.60
2019-06-10T15:17:02.776Z,9.96
2019-06-10T15:22:09.488Z,13.41
2019-06-10T15:27:23.356Z,14.01
2019-06-10T15:32:34.014Z,6.07
2019-06-10T15:37:29.877Z,5.92
2019-06-10T15:42:37.483Z,5.24
2019-06-10T15:47:45.116Z,5.70
2019-06-10T15:52:52.744Z,10.45
2019-06-10T15:58:02.083Z,11.28
2019-06-10T16:03:07.522Z,12.41
2019-06-10T16:08:15.960Z,11.95
2019-06-10T16:13:25.633Z,11.52
2019-06-10T16:18:29.439Z,11.19
2019-06-10T16:23:37.054Z,11.96
2019-06-10T16:28:44.670Z,11.91
2019-06-10T16:33:52.831Z,10.51
2019-06-10T16:38:59.404Z,12.00
2019-06-10T16:44:07.033Z,13.18
2019-06-10T16:49:14.658Z,13.57
2019-06-10T16:54:24.241Z,32.50
2019-06-10T16:59:30.821Z,15.82
2019-06-10T17:04:36.901Z,18.56
2019-06-10T17:09:44.513Z,16.47
2019-06-10T17:14:52.713Z,14.37
2019-06-10T17:19:59.336Z,14.28
2019-06-10T17:25:06.978Z,17.15
2019-06-10T17:30:14.601Z,14.82
2019-06-10T17:35:22.233Z,16.02
2019-06-10T17:40:31.044Z,15.77
2019-06-10T17:45:37.011Z,19.32
2019-06-10T17:50:44.598Z,19.29
2019-06-10T17:55:52.245Z,21.77
2019-06-10T18:01:02.131Z,24.75
2019-06-10T18:06:07.046Z,24.29
2019-06-10T18:11:14.653Z,24.42
2019-06-10T18:16:23.199Z,19.59
2019-06-10T18:21:30.495Z,16.01
2019-06-10T18:26:37.909Z,14.07
2019-06-10T18:31:44.285Z,12.47
2019-06-10T18:36:52.136Z,11.44
2019-06-10T18:41:59.538Z,12.30
2019-06-10T18:47:07.190Z,11.22
2019-06-10T18:52:14.821Z,9.37
2019-06-10T18:57:22.574Z,10.98
2019-06-10T19:02:30.395Z,7.58
2019-06-10T19:07:38.707Z,7.16
2019-06-10T19:12:45.128Z,7.33
2019-06-10T19:17:53.602Z,8.09
2019-06-10T19:23:02.319Z,6.80
2019-06-10T19:28:07.041Z,6.16
2019-06-10T19:33:14.818Z,8.12
2019-06-10T19:38:23.254Z,7.52
2019-06-10T19:43:29.630Z,6.49
2019-06-10T19:48:41.190Z,8.18
2019-06-10T19:53:45.134Z,8.28
2019-06-10T19:58:52.954Z,8.72
2019-06-10T20:03:59.288Z,8.35
2019-06-10T20:09:06.888Z,7.37
2019-06-10T20:14:14.858Z,8.37
2019-06-10T20:19:22.593Z,7.75
2019-06-10T20:24:30.081Z,9.36
2019-06-10T20:29:37.896Z,8.44
2019-06-10T20:34:45.313Z,8.30
2019-06-10T20:39:53.896Z,11.21
2019-06-10T20:45:02.765Z,14.09
2019-06-10T20:50:07.301Z,20.82
2019-06-10T20:55:14.914Z,10.33
2019-06-10T21:00:25.649Z,10.46
2019-06-10T21:05:29.663Z,11.88
2019-06-10T21:10:37.266Z,11.49
2019-06-10T21:15:48.380Z,10.77
2019-06-10T21:20:56.096Z,12.60
2019-06-10T21:25:59.255Z,14.15
2019-06-10T21:31:06.852Z,11.52
2019-06-10T21:36:14.522Z,13.19
2019-06-10T21:41:22.711Z,12.01
2019-06-10T21:46:29.292Z,12.91
2019-06-10T21:51:36.889Z,14.22
2019-06-10T21:56:45.634Z,14.51
2019-06-10T22:01:51.626Z,12.43
2019-06-10T22:06:59.429Z,14.02
2019-06-10T22:12:07.034Z,17.36
2019-06-10T22:17:14.632Z,15.91
2019-06-10T22:22:22.216Z,15.75
2019-06-10T22:27:29.808Z,15.81
2019-06-10T22:32:37.432Z,18.33
2019-06-10T22:37:45.625Z,16.08
2019-06-10T22:42:54.038Z,16.16
2019-06-10T22:47:59.344Z,15.57
2019-06-10T22:53:06.937Z,17.97
2019-06-10T22:58:14.633Z,17.16
2019-06-10T23:03:22.198Z,17.72
2019-06-10T23:08:29.929Z,17.44
2019-06-10T23:13:37.521Z,19.83
2019-06-10T23:18:45.484Z,20.40
2019-06-10T23:23:55.417Z,21.16
2019-06-10T23:29:00.266Z,19.77
2019-06-10T23:34:07.816Z,21.19
2019-06-10T23:39:15.477Z,18.96
2019-06-10T23:44:23.270Z,19.39
2019-06-10T23:49:32.279Z,19.85
2019-06-10T23:54:38.061Z,21.42
2019-06-10T23:59:45.917Z,21.29
